KTEXKAIB

Guest
Details From KTEX - Telluride Rgnl
To KAIB - HOPKINS FLD
Flight Number -
Tags generated
Created
Modified
Stats Distance 35 nm / 65 km
Max Altitude 0 ft / 0 m
Waypoints 2
Social Downloads 0
Likes 0
Share VATSIM

Download

Looking for another format? Having issues loading an existing format? Contact us
Advertisement - Login to hide

Notes

Basic altitude profile: - Ascent Rate: 1300ft/min - Ascent Speed: 120kts - Cruise Altitude: 35000ft - Cruise Speed: 160kts - Descent Rate: 1500ft/min - Descent Speed: 250kts Options: - Use NATs: no - Use PACOTS: no - Use low airways: no - Use high airways: no

Route

KTEX KAIB

ID Type Via Altitude Latitude Longitude Leg Dist Tot Dist Heading (true) Name
O KTEX APT - 0 ft / 0 m 37.95381˚ -107.90874˚ - 0 nm - Telluride Rgnl
O KAIB APT - 0 ft / 0 m 38.23875˚ -108.56321˚ 35 nm 35 nm 299° / 299° HOPKINS FLD

Altitude Profile

Advertisement - Login to hide

KTEX

Details ICAO KTEX (TEX)
Name Telluride Rgnl
Region United States
Timezone America/Denver (UTC-7.0)
Stats Elevation 9,078 ft / 2,767 m (AMSL)
Location 37.953812° -107.908742°
Runways 1
Magnetic Variation 9.421° E

METAR

KTEX 140235Z AUTO 00000KT 10SM OVC080 03/M18 A3009 RMK AO2 T00251176

Decode

TAF

KTEX 140101Z 1401/1424 27003KT P6SM SCT080 FM140300 23008KT P6SM BKN080 BKN130 FM140700 VRB03KT P6SM VCSH BKN060 BKN090 FM141700 02010KT P6SM VCSH FEW045 SCT150

Decode

Departure Runways

ID Width Length Bearing (true) Bearing (mag) Surface Threshold Offset Overrun Length
09 98 ft / 30 m 7,095 ft / 2,163 m 104.96° 95.54° Asphalt 200 ft / 61 m 400 ft / 122 m
27 98 ft / 30 m 7,095 ft / 2,163 m 284.98° 275.56° Asphalt 200 ft / 61 m 400 ft / 122 m

KAIB

Details ICAO KAIB
Name HOPKINS FLD
Region United States
Timezone America/Denver (UTC-7.0)
Stats Elevation 5,940 ft / 1,811 m (AMSL)
Location 38.238751° -108.563215°
Runways 2
Magnetic Variation 9.737° E

METAR

KAIB 140235Z AUTO 12007KT 10SM BKN110 05/M16 A3004 RMK AO2

Decode

TAF

Not found

Destination Runways

ID Width Length Bearing (true) Bearing (mag) Surface Threshold Offset Overrun Length
05 75 ft / 23 m 4,594 ft / 1,400 m 58.42° 48.68° Asphalt 0 ft / 0 m 0 ft / 0 m
11 80 ft / 24 m 3,995 ft / 1,218 m 124.02° 114.28° Dirt 0 ft / 0 m 0 ft / 0 m
23 75 ft / 23 m 4,594 ft / 1,400 m 238.43° 228.69° Asphalt 0 ft / 0 m 0 ft / 0 m
29 80 ft / 24 m 3,995 ft / 1,218 m 304.02° 294.28° Dirt 0 ft / 0 m 0 ft / 0 m